sensor_id;sensor_type;location;lat;lon;timestamp;P1;durP1;ratioP1;P2;durP2;ratioP2
70757;SDS011;59316;52.964;7.102;2023-07-20T00:01:29;8.07;;;4.88;;
70757;SDS011;59316;52.964;7.102;2023-07-20T00:06:51;8.38;;;4.97;;
70757;SDS011;59316;52.964;7.102;2023-07-20T00:12:12;6.00;;;4.55;;
70757;SDS011;59316;52.964;7.102;2023-07-20T00:17:34;8.32;;;4.60;;
70757;SDS011;59316;52.964;7.102;2023-07-20T00:22:55;6.07;;;4.90;;
70757;SDS011;59316;52.964;7.102;2023-07-20T00:28:17;8.05;;;5.28;;
70757;SDS011;59316;52.964;7.102;2023-07-20T00:33:39;8.98;;;5.72;;
70757;SDS011;59316;52.964;7.102;2023-07-20T00:39:00;8.25;;;5.70;;
70757;SDS011;59316;52.964;7.102;2023-07-20T00:44:22;9.45;;;5.63;;
70757;SDS011;59316;52.964;7.102;2023-07-20T00:49:43;8.52;;;5.65;;
70757;SDS011;59316;52.964;7.102;2023-07-20T00:55:06;9.48;;;6.00;;
70757;SDS011;59316;52.964;7.102;2023-07-20T01:00:29;8.40;;;5.18;;
70757;SDS011;59316;52.964;7.102;2023-07-20T01:11:38;7.43;;;4.55;;
70757;SDS011;59316;52.964;7.102;2023-07-20T01:17:18;5.25;;;4.10;;
70757;SDS011;59316;52.964;7.102;2023-07-20T01:22:49;7.00;;;4.57;;
70757;SDS011;59316;52.964;7.102;2023-07-20T01:35:14;6.82;;;4.75;;
70757;SDS011;59316;52.964;7.102;2023-07-20T01:40:38;7.40;;;5.43;;
70757;SDS011;59316;52.964;7.102;2023-07-20T01:46:01;9.80;;;5.47;;
70757;SDS011;59316;52.964;7.102;2023-07-20T01:51:22;14.23;;;6.13;;
70757;SDS011;59316;52.964;7.102;2023-07-20T01:56:44;11.45;;;7.05;;
70757;SDS011;59316;52.964;7.102;2023-07-20T02:02:05;11.65;;;7.82;;
70757;SDS011;59316;52.964;7.102;2023-07-20T02:07:28;12.55;;;6.78;;
70757;SDS011;59316;52.964;7.102;2023-07-20T02:12:50;12.20;;;7.13;;
70757;SDS011;59316;52.964;7.102;2023-07-20T02:18:12;9.93;;;6.53;;
70757;SDS011;59316;52.964;7.102;2023-07-20T02:23:34;10.40;;;6.30;;
70757;SDS011;59316;52.964;7.102;2023-07-20T02:28:55;9.82;;;6.65;;
70757;SDS011;59316;52.964;7.102;2023-07-20T02:34:17;9.68;;;6.15;;
70757;SDS011;59316;52.964;7.102;2023-07-20T02:39:39;10.23;;;6.53;;
70757;SDS011;59316;52.964;7.102;2023-07-20T02:45:04;10.75;;;6.05;;
70757;SDS011;59316;52.964;7.102;2023-07-20T02:50:26;15.32;;;6.35;;
70757;SDS011;59316;52.964;7.102;2023-07-20T02:55:47;9.30;;;5.30;;
70757;SDS011;59316;52.964;7.102;2023-07-20T03:01:09;8.80;;;5.10;;
70757;SDS011;59316;52.964;7.102;2023-07-20T03:06:30;14.27;;;5.90;;
70757;SDS011;59316;52.964;7.102;2023-07-20T03:11:52;9.65;;;5.40;;
70757;SDS011;59316;52.964;7.102;2023-07-20T03:17:13;6.68;;;4.78;;
70757;SDS011;59316;52.964;7.102;2023-07-20T03:22:35;6.38;;;4.38;;
70757;SDS011;59316;52.964;7.102;2023-07-20T03:27:57;7.95;;;4.50;;
70757;SDS011;59316;52.964;7.102;2023-07-20T03:33:19;8.98;;;5.30;;
70757;SDS011;59316;52.964;7.102;2023-07-20T03:38:40;7.82;;;4.80;;
70757;SDS011;59316;52.964;7.102;2023-07-20T03:44:02;7.40;;;4.90;;
70757;SDS011;59316;52.964;7.102;2023-07-20T03:49:23;7.80;;;4.65;;
70757;SDS011;59316;52.964;7.102;2023-07-20T03:54:45;8.45;;;5.10;;
70757;SDS011;59316;52.964;7.102;2023-07-20T04:00:06;7.10;;;4.80;;
70757;SDS011;59316;52.964;7.102;2023-07-20T04:05:34;9.27;;;5.60;;
70757;SDS011;59316;52.964;7.102;2023-07-20T04:10:56;8.60;;;5.68;;
70757;SDS011;59316;52.964;7.102;2023-07-20T04:16:17;8.65;;;5.43;;
70757;SDS011;59316;52.964;7.102;2023-07-20T04:21:40;10.10;;;5.68;;
70757;SDS011;59316;52.964;7.102;2023-07-20T04:27:02;14.13;;;7.60;;
70757;SDS011;59316;52.964;7.102;2023-07-20T04:32:23;14.10;;;7.97;;
70757;SDS011;59316;52.964;7.102;2023-07-20T04:37:45;14.50;;;7.25;;
70757;SDS011;59316;52.964;7.102;2023-07-20T04:43:10;15.07;;;7.10;;
70757;SDS011;59316;52.964;7.102;2023-07-20T04:48:32;12.43;;;6.60;;
70757;SDS011;59316;52.964;7.102;2023-07-20T04:53:53;13.75;;;7.60;;
70757;SDS011;59316;52.964;7.102;2023-07-20T04:59:15;13.32;;;8.60;;
70757;SDS011;59316;52.964;7.102;2023-07-20T05:04:37;12.80;;;7.38;;
70757;SDS011;59316;52.964;7.102;2023-07-20T05:09:59;13.20;;;7.32;;
70757;SDS011;59316;52.964;7.102;2023-07-20T05:15:21;8.70;;;6.28;;
70757;SDS011;59316;52.964;7.102;2023-07-20T05:20:43;9.63;;;5.03;;
70757;SDS011;59316;52.964;7.102;2023-07-20T05:26:08;5.18;;;4.28;;
70757;SDS011;59316;52.964;7.102;2023-07-20T05:31:30;4.35;;;3.53;;
70757;SDS011;59316;52.964;7.102;2023-07-20T05:36:51;7.15;;;3.92;;
70757;SDS011;59316;52.964;7.102;2023-07-20T05:42:13;4.32;;;3.03;;
70757;SDS011;59316;52.964;7.102;2023-07-20T05:47:34;4.68;;;3.20;;
70757;SDS011;59316;52.964;7.102;2023-07-20T05:52:56;3.85;;;2.80;;
70757;SDS011;59316;52.964;7.102;2023-07-20T05:58:17;3.95;;;2.10;;
70757;SDS011;59316;52.964;7.102;2023-07-20T06:03:39;4.78;;;1.70;;
70757;SDS011;59316;52.964;7.102;2023-07-20T06:09:00;2.33;;;1.70;;
70757;SDS011;59316;52.964;7.102;2023-07-20T06:14:22;2.92;;;1.50;;
70757;SDS011;59316;52.964;7.102;2023-07-20T06:19:43;2.55;;;1.25;;
70757;SDS011;59316;52.964;7.102;2023-07-20T06:25:05;4.22;;;1.20;;
70757;SDS011;59316;52.964;7.102;2023-07-20T06:30:27;2.38;;;1.15;;
70757;SDS011;59316;52.964;7.102;2023-07-20T06:35:48;1.27;;;1.10;;
70757;SDS011;59316;52.964;7.102;2023-07-20T06:41:10;2.90;;;1.00;;
70757;SDS011;59316;52.964;7.102;2023-07-20T06:46:34;4.45;;;1.23;;
70757;SDS011;59316;52.964;7.102;2023-07-20T06:51:54;3.10;;;1.00;;
70757;SDS011;59316;52.964;7.102;2023-07-20T06:57:16;2.72;;;0.90;;
70757;SDS011;59316;52.964;7.102;2023-07-20T07:02:39;3.40;;;1.00;;
70757;SDS011;59316;52.964;7.102;2023-07-20T07:08:06;1.58;;;1.05;;
70757;SDS011;59316;52.964;7.102;2023-07-20T07:13:27;1.65;;;0.90;;
70757;SDS011;59316;52.964;7.102;2023-07-20T07:18:49;2.83;;;1.10;;
70757;SDS011;59316;52.964;7.102;2023-07-20T07:24:11;2.75;;;1.10;;
70757;SDS011;59316;52.964;7.102;2023-07-20T07:29:39;2.05;;;1.00;;
70757;SDS011;59316;52.964;7.102;2023-07-20T07:35:00;1.83;;;0.90;;
70757;SDS011;59316;52.964;7.102;2023-07-20T07:40:22;3.47;;;0.80;;
70757;SDS011;59316;52.964;7.102;2023-07-20T07:45:43;2.80;;;0.75;;
70757;SDS011;59316;52.964;7.102;2023-07-20T07:51:04;3.40;;;0.88;;
70757;SDS011;59316;52.964;7.102;2023-07-20T07:56:25;1.40;;;0.95;;
70757;SDS011;59316;52.964;7.102;2023-07-20T08:01:46;2.65;;;1.00;;
70757;SDS011;59316;52.964;7.102;2023-07-20T08:07:07;4.13;;;1.05;;
70757;SDS011;59316;52.964;7.102;2023-07-20T08:12:28;2.05;;;1.02;;
70757;SDS011;59316;52.964;7.102;2023-07-20T08:17:49;1.63;;;1.00;;
70757;SDS011;59316;52.964;7.102;2023-07-20T08:23:10;4.00;;;0.90;;
70757;SDS011;59316;52.964;7.102;2023-07-20T08:28:31;5.82;;;1.10;;
70757;SDS011;59316;52.964;7.102;2023-07-20T08:33:52;5.72;;;1.58;;
70757;SDS011;59316;52.964;7.102;2023-07-20T08:39:12;5.55;;;1.35;;
70757;SDS011;59316;52.964;7.102;2023-07-20T08:44:33;1.73;;;1.02;;
70757;SDS011;59316;52.964;7.102;2023-07-20T08:49:55;2.72;;;1.13;;
70757;SDS011;59316;52.964;7.102;2023-07-20T08:55:16;3.42;;;1.08;;
70757;SDS011;59316;52.964;7.102;2023-07-20T09:00:37;2.03;;;0.95;;
70757;SDS011;59316;52.964;7.102;2023-07-20T09:06:00;2.65;;;1.00;;
70757;SDS011;59316;52.964;7.102;2023-07-20T09:11:21;3.08;;;1.10;;
70757;SDS011;59316;52.964;7.102;2023-07-20T09:16:53;2.25;;;0.80;;
70757;SDS011;59316;52.964;7.102;2023-07-20T09:22:14;1.88;;;1.17;;
70757;SDS011;59316;52.964;7.102;2023-07-20T09:27:39;3.15;;;1.17;;
70757;SDS011;59316;52.964;7.102;2023-07-20T09:33:04;2.22;;;1.10;;
70757;SDS011;59316;52.964;7.102;2023-07-20T09:38:46;1.83;;;1.10;;
70757;SDS011;59316;52.964;7.102;2023-07-20T09:44:10;2.90;;;1.10;;
70757;SDS011;59316;52.964;7.102;2023-07-20T09:49:38;4.47;;;1.42;;
70757;SDS011;59316;52.964;7.102;2023-07-20T09:55:03;2.72;;;1.40;;
70757;SDS011;59316;52.964;7.102;2023-07-20T10:00:25;3.15;;;1.60;;
70757;SDS011;59316;52.964;7.102;2023-07-20T10:05:54;5.22;;;1.40;;
70757;SDS011;59316;52.964;7.102;2023-07-20T10:11:21;3.03;;;1.10;;
70757;SDS011;59316;52.964;7.102;2023-07-20T10:16:46;4.65;;;1.63;;
70757;SDS011;59316;52.964;7.102;2023-07-20T10:22:12;1.90;;;1.10;;
70757;SDS011;59316;52.964;7.102;2023-07-20T10:27:35;3.15;;;1.25;;
70757;SDS011;59316;52.964;7.102;2023-07-20T10:32:56;4.13;;;1.80;;
70757;SDS011;59316;52.964;7.102;2023-07-20T10:38:17;4.05;;;1.48;;
70757;SDS011;59316;52.964;7.102;2023-07-20T10:43:41;1.95;;;1.13;;
70757;SDS011;59316;52.964;7.102;2023-07-20T10:49:04;1.65;;;1.15;;
70757;SDS011;59316;52.964;7.102;2023-07-20T10:59:47;2.78;;;1.10;;
70757;SDS011;59316;52.964;7.102;2023-07-20T11:05:31;2.80;;;1.27;;
70757;SDS011;59316;52.964;7.102;2023-07-20T11:16:47;4.28;;;1.33;;
70757;SDS011;59316;52.964;7.102;2023-07-20T11:27:31;4.90;;;1.23;;
70757;SDS011;59316;52.964;7.102;2023-07-20T11:32:52;2.20;;;1.15;;
70757;SDS011;59316;52.964;7.102;2023-07-20T11:38:14;2.65;;;0.98;;
70757;SDS011;59316;52.964;7.102;2023-07-20T11:43:35;1.52;;;1.10;;
70757;SDS011;59316;52.964;7.102;2023-07-20T11:48:57;1.88;;;0.90;;
70757;SDS011;59316;52.964;7.102;2023-07-20T11:54:18;0.95;;;0.70;;
70757;SDS011;59316;52.964;7.102;2023-07-20T11:59:39;2.38;;;1.00;;
70757;SDS011;59316;52.964;7.102;2023-07-20T12:05:13;3.58;;;1.00;;
70757;SDS011;59316;52.964;7.102;2023-07-20T12:10:35;1.88;;;0.90;;
70757;SDS011;59316;52.964;7.102;2023-07-20T12:16:06;1.30;;;0.90;;
70757;SDS011;59316;52.964;7.102;2023-07-20T12:21:29;1.52;;;0.90;;
70757;SDS011;59316;52.964;7.102;2023-07-20T12:26:55;1.73;;;0.95;;
70757;SDS011;59316;52.964;7.102;2023-07-20T12:32:17;1.48;;;0.90;;
70757;SDS011;59316;52.964;7.102;2023-07-20T12:37:38;3.22;;;1.08;;
70757;SDS011;59316;52.964;7.102;2023-07-20T12:43:00;1.58;;;1.02;;
70757;SDS011;59316;52.964;7.102;2023-07-20T12:48:21;4.97;;;1.00;;
70757;SDS011;59316;52.964;7.102;2023-07-20T12:53:43;2.08;;;1.10;;
70757;SDS011;59316;52.964;7.102;2023-07-20T12:59:04;2.85;;;0.95;;
70757;SDS011;59316;52.964;7.102;2023-07-20T13:04:26;1.88;;;0.95;;
70757;SDS011;59316;52.964;7.102;2023-07-20T13:09:47;1.23;;;0.73;;
70757;SDS011;59316;52.964;7.102;2023-07-20T13:15:10;1.52;;;0.77;;
70757;SDS011;59316;52.964;7.102;2023-07-20T13:20:31;4.13;;;0.93;;
70757;SDS011;59316;52.964;7.102;2023-07-20T13:25:53;2.83;;;0.95;;
70757;SDS011;59316;52.964;7.102;2023-07-20T13:31:14;4.40;;;1.05;;
70757;SDS011;59316;52.964;7.102;2023-07-20T13:36:36;3.47;;;1.20;;
70757;SDS011;59316;52.964;7.102;2023-07-20T13:41:58;2.72;;;1.00;;
70757;SDS011;59316;52.964;7.102;2023-07-20T13:47:19;1.85;;;0.80;;
70757;SDS011;59316;52.964;7.102;2023-07-20T13:52:41;3.75;;;1.10;;
70757;SDS011;59316;52.964;7.102;2023-07-20T13:58:02;1.50;;;0.88;;
70757;SDS011;59316;52.964;7.102;2023-07-20T14:03:24;1.40;;;0.90;;
70757;SDS011;59316;52.964;7.102;2023-07-20T14:08:45;1.98;;;0.88;;
70757;SDS011;59316;52.964;7.102;2023-07-20T14:14:06;2.08;;;1.00;;
70757;SDS011;59316;52.964;7.102;2023-07-20T14:19:27;2.97;;;0.82;;
70757;SDS011;59316;52.964;7.102;2023-07-20T14:24:48;3.50;;;1.10;;
70757;SDS011;59316;52.964;7.102;2023-07-20T14:30:10;3.05;;;1.13;;
70757;SDS011;59316;52.964;7.102;2023-07-20T14:35:32;2.03;;;1.00;;
70757;SDS011;59316;52.964;7.102;2023-07-20T14:40:54;1.48;;;1.10;;
70757;SDS011;59316;52.964;7.102;2023-07-20T14:46:15;3.38;;;1.45;;
70757;SDS011;59316;52.964;7.102;2023-07-20T14:51:40;3.13;;;1.77;;
70757;SDS011;59316;52.964;7.102;2023-07-20T14:57:01;4.15;;;1.60;;
70757;SDS011;59316;52.964;7.102;2023-07-20T15:02:23;4.00;;;1.83;;
70757;SDS011;59316;52.964;7.102;2023-07-20T15:07:44;3.53;;;1.85;;
70757;SDS011;59316;52.964;7.102;2023-07-20T15:13:05;4.55;;;1.35;;
70757;SDS011;59316;52.964;7.102;2023-07-20T15:18:27;1.90;;;1.40;;
70757;SDS011;59316;52.964;7.102;2023-07-20T15:24:07;2.75;;;1.30;;
70757;SDS011;59316;52.964;7.102;2023-07-20T15:29:28;3.55;;;1.30;;
70757;SDS011;59316;52.964;7.102;2023-07-20T15:34:52;2.17;;;1.13;;
70757;SDS011;59316;52.964;7.102;2023-07-20T15:40:13;2.40;;;1.38;;
70757;SDS011;59316;52.964;7.102;2023-07-20T15:45:34;2.13;;;1.00;;
70757;SDS011;59316;52.964;7.102;2023-07-20T15:50:56;1.73;;;0.98;;
70757;SDS011;59316;52.964;7.102;2023-07-20T15:56:17;1.88;;;1.10;;
70757;SDS011;59316;52.964;7.102;2023-07-20T16:01:39;3.47;;;0.95;;
70757;SDS011;59316;52.964;7.102;2023-07-20T16:07:00;2.53;;;1.10;;
70757;SDS011;59316;52.964;7.102;2023-07-20T16:12:21;2.28;;;1.38;;
70757;SDS011;59316;52.964;7.102;2023-07-20T16:17:43;2.40;;;1.00;;
70757;SDS011;59316;52.964;7.102;2023-07-20T16:23:04;3.58;;;1.00;;
70757;SDS011;59316;52.964;7.102;2023-07-20T16:28:26;2.33;;;0.90;;
70757;SDS011;59316;52.964;7.102;2023-07-20T16:33:47;2.50;;;1.20;;
70757;SDS011;59316;52.964;7.102;2023-07-20T16:39:08;1.58;;;1.00;;
70757;SDS011;59316;52.964;7.102;2023-07-20T16:44:32;5.68;;;1.30;;
70757;SDS011;59316;52.964;7.102;2023-07-20T16:49:53;4.93;;;1.65;;
70757;SDS011;59316;52.964;7.102;2023-07-20T16:55:15;2.10;;;1.30;;
70757;SDS011;59316;52.964;7.102;2023-07-20T17:00:36;1.33;;;1.08;;
70757;SDS011;59316;52.964;7.102;2023-07-20T17:05:58;4.57;;;1.20;;
70757;SDS011;59316;52.964;7.102;2023-07-20T17:11:20;2.15;;;1.35;;
70757;SDS011;59316;52.964;7.102;2023-07-20T17:16:42;2.47;;;1.00;;
70757;SDS011;59316;52.964;7.102;2023-07-20T17:22:04;3.70;;;1.27;;
70757;SDS011;59316;52.964;7.102;2023-07-20T17:27:25;1.38;;;1.00;;
70757;SDS011;59316;52.964;7.102;2023-07-20T17:32:47;1.92;;;1.15;;
70757;SDS011;59316;52.964;7.102;2023-07-20T17:38:09;2.80;;;1.05;;
70757;SDS011;59316;52.964;7.102;2023-07-20T17:48:54;2.47;;;1.10;;
70757;SDS011;59316;52.964;7.102;2023-07-20T17:54:15;3.05;;;1.25;;
70757;SDS011;59316;52.964;7.102;2023-07-20T17:59:36;3.05;;;1.45;;
70757;SDS011;59316;52.964;7.102;2023-07-20T18:05:17;3.10;;;1.45;;
70757;SDS011;59316;52.964;7.102;2023-07-20T18:10:39;2.67;;;1.38;;
70757;SDS011;59316;52.964;7.102;2023-07-20T18:16:01;3.17;;;1.35;;
70757;SDS011;59316;52.964;7.102;2023-07-20T18:21:23;2.72;;;1.30;;
70757;SDS011;59316;52.964;7.102;2023-07-20T18:26:44;3.00;;;1.40;;
70757;SDS011;59316;52.964;7.102;2023-07-20T18:32:06;5.18;;;2.03;;
70757;SDS011;59316;52.964;7.102;2023-07-20T18:37:27;2.08;;;1.60;;
70757;SDS011;59316;52.964;7.102;2023-07-20T18:42:49;2.88;;;1.42;;
70757;SDS011;59316;52.964;7.102;2023-07-20T18:48:10;2.83;;;1.88;;
70757;SDS011;59316;52.964;7.102;2023-07-20T18:53:32;2.53;;;1.45;;
70757;SDS011;59316;52.964;7.102;2023-07-20T18:58:53;2.47;;;1.67;;
70757;SDS011;59316;52.964;7.102;2023-07-20T19:04:14;2.35;;;1.73;;
70757;SDS011;59316;52.964;7.102;2023-07-20T19:09:36;2.55;;;1.92;;
70757;SDS011;59316;52.964;7.102;2023-07-20T19:14:57;4.20;;;1.80;;
70757;SDS011;59316;52.964;7.102;2023-07-20T19:20:19;3.28;;;1.85;;
70757;SDS011;59316;52.964;7.102;2023-07-20T19:25:40;5.60;;;1.90;;
70757;SDS011;59316;52.964;7.102;2023-07-20T19:31:01;3.60;;;1.98;;
70757;SDS011;59316;52.964;7.102;2023-07-20T19:36:24;3.78;;;1.80;;
70757;SDS011;59316;52.964;7.102;2023-07-20T19:41:46;5.45;;;2.05;;
70757;SDS011;59316;52.964;7.102;2023-07-20T19:47:07;4.75;;;1.90;;
70757;SDS011;59316;52.964;7.102;2023-07-20T19:52:29;2.78;;;1.60;;
70757;SDS011;59316;52.964;7.102;2023-07-20T19:57:50;3.38;;;2.00;;
70757;SDS011;59316;52.964;7.102;2023-07-20T20:03:12;4.78;;;1.90;;
70757;SDS011;59316;52.964;7.102;2023-07-20T20:08:36;3.10;;;1.85;;
70757;SDS011;59316;52.964;7.102;2023-07-20T20:13:58;3.90;;;2.00;;
70757;SDS011;59316;52.964;7.102;2023-07-20T20:19:19;7.32;;;2.40;;
70757;SDS011;59316;52.964;7.102;2023-07-20T20:24:43;6.32;;;2.05;;
70757;SDS011;59316;52.964;7.102;2023-07-20T20:30:08;4.05;;;2.10;;
70757;SDS011;59316;52.964;7.102;2023-07-20T20:35:30;5.65;;;2.30;;
70757;SDS011;59316;52.964;7.102;2023-07-20T20:40:52;2.90;;;2.28;;
70757;SDS011;59316;52.964;7.102;2023-07-20T20:46:13;4.25;;;2.58;;
70757;SDS011;59316;52.964;7.102;2023-07-20T20:51:35;4.75;;;2.30;;
70757;SDS011;59316;52.964;7.102;2023-07-20T20:56:56;5.28;;;2.17;;
70757;SDS011;59316;52.964;7.102;2023-07-20T21:02:17;4.72;;;2.17;;
70757;SDS011;59316;52.964;7.102;2023-07-20T21:07:38;5.35;;;2.42;;
70757;SDS011;59316;52.964;7.102;2023-07-20T21:13:00;5.97;;;2.65;;
70757;SDS011;59316;52.964;7.102;2023-07-20T21:18:21;3.65;;;2.85;;
70757;SDS011;59316;52.964;7.102;2023-07-20T21:23:43;3.60;;;2.75;;
70757;SDS011;59316;52.964;7.102;2023-07-20T21:29:04;7.30;;;2.85;;
70757;SDS011;59316;52.964;7.102;2023-07-20T21:34:26;5.28;;;3.20;;
70757;SDS011;59316;52.964;7.102;2023-07-20T21:39:47;5.63;;;2.90;;
70757;SDS011;59316;52.964;7.102;2023-07-20T21:45:08;4.95;;;2.40;;
70757;SDS011;59316;52.964;7.102;2023-07-20T21:50:30;6.00;;;2.40;;
70757;SDS011;59316;52.964;7.102;2023-07-20T21:55:51;4.13;;;2.47;;
70757;SDS011;59316;52.964;7.102;2023-07-20T22:01:12;4.15;;;2.17;;
70757;SDS011;59316;52.964;7.102;2023-07-20T22:06:53;5.82;;;2.75;;
70757;SDS011;59316;52.964;7.102;2023-07-20T22:12:14;3.35;;;2.50;;
70757;SDS011;59316;52.964;7.102;2023-07-20T22:17:36;3.33;;;2.25;;
70757;SDS011;59316;52.964;7.102;2023-07-20T22:22:57;3.10;;;2.20;;
70757;SDS011;59316;52.964;7.102;2023-07-20T22:28:19;4.22;;;2.50;;
70757;SDS011;59316;52.964;7.102;2023-07-20T22:33:40;5.82;;;2.70;;
70757;SDS011;59316;52.964;7.102;2023-07-20T22:39:01;3.60;;;2.47;;
70757;SDS011;59316;52.964;7.102;2023-07-20T22:44:23;5.32;;;2.85;;
70757;SDS011;59316;52.964;7.102;2023-07-20T22:49:44;3.95;;;2.40;;
70757;SDS011;59316;52.964;7.102;2023-07-20T22:55:06;8.13;;;2.40;;
70757;SDS011;59316;52.964;7.102;2023-07-20T23:00:27;3.45;;;2.38;;
70757;SDS011;59316;52.964;7.102;2023-07-20T23:05:49;4.57;;;2.58;;
70757;SDS011;59316;52.964;7.102;2023-07-20T23:11:10;8.25;;;3.50;;
70757;SDS011;59316;52.964;7.102;2023-07-20T23:16:32;6.00;;;3.10;;
70757;SDS011;59316;52.964;7.102;2023-07-20T23:21:53;8.43;;;2.85;;
70757;SDS011;59316;52.964;7.102;2023-07-20T23:27:15;5.68;;;2.70;;
70757;SDS011;59316;52.964;7.102;2023-07-20T23:32:36;3.83;;;2.53;;
70757;SDS011;59316;52.964;7.102;2023-07-20T23:37:57;6.15;;;3.47;;
70757;SDS011;59316;52.964;7.102;2023-07-20T23:43:18;3.42;;;2.28;;
70757;SDS011;59316;52.964;7.102;2023-07-20T23:48:40;3.38;;;2.40;;
70757;SDS011;59316;52.964;7.102;2023-07-20T23:54:03;4.40;;;2.35;;
70757;SDS011;59316;52.964;7.102;2023-07-20T23:59:25;6.35;;;3.20;;
